createdAt,value
2018-05-24T03:01:04.550Z,992.36
2018-05-24T03:02:04.766Z,992.38
2018-05-24T03:03:04.991Z,992.41
2018-05-24T03:04:04.936Z,992.44
2018-05-24T03:05:05.152Z,992.41
2018-05-24T03:06:05.316Z,992.38
2018-05-24T03:07:05.452Z,992.42
2018-05-24T03:08:05.621Z,992.39
2018-05-24T03:09:05.751Z,992.41
2018-05-24T03:10:06.098Z,992.39
2018-05-24T03:11:06.125Z,992.34
2018-05-24T03:12:06.338Z,992.38
2018-05-24T03:13:06.465Z,992.38
2018-05-24T03:14:06.656Z,992.35
2018-05-24T03:15:06.780Z,992.34
2018-05-24T03:16:06.966Z,992.36
2018-05-24T03:17:07.119Z,992.38
2018-05-24T03:18:07.299Z,992.39
2018-05-24T03:19:07.414Z,992.36
2018-05-24T03:20:07.653Z,992.36
2018-05-24T03:21:07.755Z,992.36
2018-05-24T03:22:07.954Z,992.37
2018-05-24T03:23:08.198Z,992.38
2018-05-24T03:24:08.374Z,992.36
2018-05-24T03:25:08.458Z,992.38
2018-05-24T03:26:08.681Z,992.37
2018-05-24T03:27:08.823Z,992.34
2018-05-24T03:28:08.952Z,992.33
2018-05-24T03:29:09.121Z,992.38
2018-05-24T03:30:09.351Z,992.35
2018-05-24T03:31:09.523Z,992.33
2018-05-24T03:32:09.640Z,992.34
2018-05-24T03:33:09.845Z,992.30
2018-05-24T03:34:09.977Z,992.30
2018-05-24T03:35:10.138Z,992.31
2018-05-24T03:36:10.297Z,992.30
2018-05-24T03:37:10.430Z,992.31
2018-05-24T03:38:10.603Z,992.30
2018-05-24T03:39:10.795Z,992.31
2018-05-24T03:40:10.987Z,992.27
2018-05-24T03:41:11.206Z,992.29
2018-05-24T03:42:11.365Z,992.30
2018-05-24T03:43:11.512Z,992.31
2018-05-24T03:44:11.674Z,992.31
2018-05-24T03:45:11.966Z,992.28
2018-05-24T03:46:12.011Z,992.28
2018-05-24T03:47:12.230Z,992.25
2018-05-24T03:48:12.346Z,992.28
2018-05-24T03:49:12.611Z,992.24
2018-05-24T03:50:12.696Z,992.22
2018-05-24T03:51:12.900Z,992.19
2018-05-24T03:52:13.054Z,992.21
2018-05-24T03:53:13.192Z,992.21
2018-05-24T03:54:13.388Z,992.23
2018-05-24T03:55:13.631Z,992.18
2018-05-24T03:56:13.777Z,992.25
2018-05-24T03:57:13.906Z,992.23
2018-05-24T03:58:14.060Z,992.27
2018-05-24T03:59:14.261Z,992.29
2018-05-24T04:00:14.420Z,992.24
2018-05-24T04:01:14.573Z,992.28
2018-05-24T04:02:14.736Z,992.26
2018-05-24T04:03:14.914Z,992.26
2018-05-24T04:04:15.166Z,992.25
2018-05-24T04:05:15.292Z,992.22
2018-05-24T04:06:15.479Z,992.25
2018-05-24T04:07:15.757Z,992.22
2018-05-24T04:08:15.830Z,992.24
2018-05-24T04:09:15.939Z,992.24
2018-05-24T04:10:16.126Z,992.25
2018-05-24T04:11:16.306Z,992.23
2018-05-24T04:12:16.485Z,992.20
2018-05-24T04:13:16.582Z,992.19
2018-05-24T04:14:16.707Z,992.19
2018-05-24T04:15:16.937Z,992.17
2018-05-24T04:16:17.093Z,992.17
2018-05-24T04:17:17.283Z,992.18
2018-05-24T04:18:17.448Z,992.14
2018-05-24T04:19:17.563Z,992.14
2018-05-24T04:20:17.763Z,992.13
2018-05-24T04:21:17.986Z,992.15
2018-05-24T04:22:18.066Z,992.12
2018-05-24T04:23:18.302Z,992.09
2018-05-24T04:24:18.488Z,992.09
2018-05-24T04:25:18.615Z,992.07
2018-05-24T04:26:18.788Z,992.05
2018-05-24T04:27:19.010Z,992.08
2018-05-24T04:28:19.045Z,992.08
2018-05-24T04:29:19.172Z,992.12
2018-05-24T04:30:19.341Z,992.14
2018-05-24T04:31:19.576Z,992.23
2018-05-24T04:32:19.698Z,992.20
2018-05-24T04:33:19.825Z,992.12
2018-05-24T04:34:20.037Z,992.14
2018-05-24T04:35:20.172Z,992.20
2018-05-24T04:36:20.410Z,992.19
2018-05-24T04:37:20.617Z,992.14
2018-05-24T04:38:20.646Z,992.19
2018-05-24T04:39:20.789Z,992.19
2018-05-24T04:40:20.983Z,992.19
2018-05-24T04:41:21.152Z,992.19
2018-05-24T04:42:21.313Z,992.15
2018-05-24T04:43:21.544Z,992.19
2018-05-24T04:44:21.661Z,992.19
2018-05-24T04:45:21.830Z,992.29
2018-05-24T04:46:21.986Z,992.25
2018-05-24T04:47:22.225Z,992.25
2018-05-24T04:48:22.428Z,992.30
2018-05-24T04:49:22.578Z,992.26
2018-05-24T04:50:22.676Z,992.25
2018-05-24T04:51:22.855Z,992.26
2018-05-24T04:52:23.088Z,992.28
2018-05-24T04:53:23.259Z,992.26
2018-05-24T04:54:23.468Z,992.30
2018-05-24T04:55:23.535Z,992.24
2018-05-24T04:56:23.769Z,992.30
2018-05-24T04:57:23.938Z,992.29
2018-05-24T04:58:24.109Z,992.33
2018-05-24T04:59:24.246Z,992.27
2018-05-24T05:00:24.373Z,992.26
2018-05-24T05:01:24.547Z,992.30
2018-05-24T05:02:24.781Z,992.26
2018-05-24T05:03:24.992Z,992.33
2018-05-24T05:04:25.133Z,992.29
2018-05-24T05:05:25.351Z,992.33
2018-05-24T05:06:25.522Z,992.33
2018-05-24T05:07:25.653Z,992.38
2018-05-24T05:08:25.915Z,992.35
2018-05-24T05:09:25.949Z,992.32
2018-05-24T05:10:26.165Z,992.34
2018-05-24T05:11:26.310Z,992.35
2018-05-24T05:12:26.426Z,992.26
2018-05-24T05:13:26.746Z,992.29
2018-05-24T05:14:26.772Z,992.32
2018-05-24T05:15:27.024Z,992.22
2018-05-24T05:16:27.154Z,992.25
2018-05-24T05:17:27.315Z,992.27
2018-05-24T05:18:27.460Z,992.25
2018-05-24T05:19:27.712Z,992.23
2018-05-24T05:20:27.866Z,992.25
2018-05-24T05:21:28.047Z,992.32
2018-05-24T05:22:28.200Z,992.21
2018-05-24T05:23:28.416Z,992.24
2018-05-24T05:24:28.630Z,992.24
2018-05-24T05:25:28.746Z,992.21
2018-05-24T05:26:28.861Z,992.27
2018-05-24T05:27:29.072Z,992.21
2018-05-24T05:28:29.260Z,992.16
2018-05-24T05:29:29.378Z,992.19
2018-05-24T05:30:29.623Z,992.23
2018-05-24T05:31:29.772Z,992.19
2018-05-24T05:32:29.940Z,992.22
2018-05-24T05:33:30.097Z,992.20
2018-05-24T05:34:30.339Z,992.26
2018-05-24T05:35:30.427Z,992.24
2018-05-24T05:36:30.634Z,992.25
2018-05-24T05:37:30.778Z,992.24
2018-05-24T05:38:30.887Z,992.28
2018-05-24T05:39:31.174Z,992.25
2018-05-24T05:40:31.327Z,992.27
2018-05-24T05:41:31.506Z,992.27
2018-05-24T05:42:31.715Z,992.27
2018-05-24T05:43:31.835Z,992.27
2018-05-24T05:44:32.033Z,992.33
2018-05-24T05:45:32.167Z,992.32
2018-05-24T05:46:32.389Z,992.30
2018-05-24T05:47:32.475Z,992.35
2018-05-24T05:48:32.670Z,992.39
2018-05-24T05:49:32.855Z,992.40
2018-05-24T05:50:32.997Z,992.43
2018-05-24T05:51:33.193Z,992.39
2018-05-24T05:52:33.389Z,992.35
2018-05-24T05:53:33.559Z,992.37
2018-05-24T05:54:33.719Z,992.38
2018-05-24T05:55:33.891Z,992.38
2018-05-24T05:56:34.033Z,992.41
2018-05-24T05:57:35.144Z,992.43
2018-05-24T05:58:34.371Z,992.46
2018-05-24T05:59:34.489Z,992.39
2018-05-24T06:00:34.735Z,992.42
2018-05-24T06:01:34.876Z,992.47
2018-05-24T06:02:35.000Z,992.46
2018-05-24T06:03:35.174Z,992.47
2018-05-24T06:04:35.444Z,992.42
2018-05-24T06:05:35.541Z,992.50
2018-05-24T06:06:35.783Z,992.45
2018-05-24T06:07:35.903Z,992.53
2018-05-24T06:08:36.022Z,992.56
2018-05-24T06:09:36.260Z,992.52
2018-05-24T06:10:36.395Z,992.57
2018-05-24T06:11:36.598Z,992.57
2018-05-24T06:12:36.838Z,992.60
2018-05-24T06:13:36.955Z,992.60
2018-05-24T06:14:37.075Z,992.59
2018-05-24T06:15:37.287Z,992.60
2018-05-24T06:16:37.430Z,992.58
2018-05-24T06:17:37.586Z,992.63
2018-05-24T06:18:37.758Z,992.60
2018-05-24T06:19:37.960Z,992.63
2018-05-24T06:20:38.154Z,992.62
2018-05-24T06:21:38.245Z,992.63
2018-05-24T06:22:38.442Z,992.69
2018-05-24T06:23:38.634Z,992.70
2018-05-24T06:24:38.782Z,992.72
2018-05-24T06:25:38.897Z,992.70
2018-05-24T06:26:39.133Z,992.73
2018-05-24T06:27:39.295Z,992.70
2018-05-24T06:28:39.525Z,992.76
2018-05-24T06:29:39.623Z,992.80
2018-05-24T06:30:39.749Z,992.78
2018-05-24T06:31:39.954Z,992.83
2018-05-24T06:32:40.095Z,992.82
2018-05-24T06:33:40.300Z,992.83
2018-05-24T06:34:40.487Z,992.83
2018-05-24T06:35:40.603Z,992.82
2018-05-24T06:36:40.782Z,992.84
2018-05-24T06:37:40.962Z,992.87
2018-05-24T06:38:41.142Z,992.81
2018-05-24T06:39:41.314Z,992.79
2018-05-24T06:40:41.492Z,992.83
2018-05-24T06:41:41.648Z,992.80
2018-05-24T06:42:41.820Z,992.80
2018-05-24T06:43:41.928Z,992.81
2018-05-24T06:44:42.162Z,992.80
2018-05-24T06:45:42.323Z,992.82
2018-05-24T06:46:42.454Z,992.77
2018-05-24T06:47:42.699Z,992.77
2018-05-24T06:48:42.884Z,992.73
2018-05-24T06:49:42.967Z,992.70
2018-05-24T06:50:43.215Z,992.72
2018-05-24T06:51:43.346Z,992.68
2018-05-24T06:52:43.485Z,992.67
2018-05-24T06:53:43.765Z,992.64
2018-05-24T06:54:43.855Z,992.61
2018-05-24T06:55:44.008Z,992.59
2018-05-24T06:56:44.128Z,992.60
2018-05-24T06:57:44.373Z,992.65
2018-05-24T06:58:44.479Z,992.62
2018-05-24T06:59:44.672Z,992.67
2018-05-24T07:00:44.799Z,992.60
2018-05-24T07:01:44.928Z,992.61
2018-05-24T07:02:45.157Z,992.58
2018-05-24T07:03:45.259Z,992.61
2018-05-24T07:04:45.488Z,992.59
2018-05-24T07:05:45.683Z,992.64
2018-05-24T07:06:45.792Z,992.66
2018-05-24T07:07:46.033Z,992.64
2018-05-24T07:08:46.192Z,992.59
2018-05-24T07:09:46.399Z,992.68
2018-05-24T07:10:46.472Z,992.73
2018-05-24T07:11:46.739Z,992.74
2018-05-24T07:12:46.859Z,992.70
2018-05-24T07:13:46.997Z,992.71
2018-05-24T07:14:47.181Z,992.71
2018-05-24T07:15:47.283Z,992.72
2018-05-24T07:16:47.478Z,992.67
2018-05-24T07:17:47.676Z,992.69
2018-05-24T07:18:47.831Z,992.70
2018-05-24T07:19:47.994Z,992.67
2018-05-24T07:20:48.221Z,992.72
2018-05-24T07:21:48.284Z,992.67
2018-05-24T07:22:48.463Z,992.70
2018-05-24T07:23:48.690Z,992.70
2018-05-24T07:24:48.859Z,992.67
2018-05-24T07:25:48.999Z,992.69
2018-05-24T07:26:49.285Z,992.66
2018-05-24T07:27:49.391Z,992.63
2018-05-24T07:28:49.498Z,992.66
2018-05-24T07:29:49.649Z,992.62
2018-05-24T07:30:49.827Z,992.66
2018-05-24T07:31:50.039Z,992.70
2018-05-24T07:32:50.178Z,992.69
2018-05-24T07:33:50.308Z,992.70
2018-05-24T07:34:50.524Z,992.63
2018-05-24T07:35:50.677Z,992.65
2018-05-24T07:36:50.802Z,992.63
2018-05-24T07:37:51.026Z,992.66
2018-05-24T07:38:51.195Z,992.65
2018-05-24T07:39:51.346Z,992.62
2018-05-24T07:40:51.464Z,992.61
2018-05-24T07:41:51.637Z,992.64
2018-05-24T07:42:51.782Z,992.67
2018-05-24T07:43:52.037Z,992.64
2018-05-24T07:44:52.083Z,992.65
2018-05-24T07:45:52.287Z,992.67
2018-05-24T07:46:52.471Z,992.66
2018-05-24T07:47:52.618Z,992.71
2018-05-24T07:48:52.770Z,992.68
2018-05-24T07:49:52.953Z,992.70
2018-05-24T07:50:53.092Z,992.67
2018-05-24T07:51:53.297Z,992.62
2018-05-24T07:52:53.498Z,992.63
2018-05-24T07:53:53.676Z,992.66
2018-05-24T07:54:54.009Z,992.64
2018-05-24T07:55:54.037Z,992.67
2018-05-24T07:56:54.130Z,992.66
2018-05-24T07:57:54.326Z,992.71
2018-05-24T07:58:54.444Z,992.68
2018-05-24T07:59:54.655Z,992.68
2018-05-24T08:00:54.765Z,992.73
2018-05-24T08:01:55.036Z,992.73
2018-05-24T08:02:55.103Z,992.73
2018-05-24T08:03:55.312Z,992.69
2018-05-24T08:04:55.463Z,992.69
2018-05-24T08:05:55.628Z,992.66
2018-05-24T08:06:55.861Z,992.69
2018-05-24T08:07:56.091Z,992.68
2018-05-24T08:08:56.259Z,992.72
2018-05-24T08:09:56.432Z,992.67
2018-05-24T08:10:56.611Z,992.70
2018-05-24T08:11:56.713Z,992.71
2018-05-24T08:12:56.979Z,992.69
2018-05-24T08:13:57.068Z,992.72
2018-05-24T08:14:57.286Z,992.69
2018-05-24T08:15:57.447Z,992.67
2018-05-24T08:16:57.633Z,992.68
2018-05-24T08:17:57.857Z,992.65
2018-05-24T08:18:58.020Z,992.63
2018-05-24T08:19:58.198Z,992.60
2018-05-24T08:20:58.331Z,992.60
2018-05-24T08:21:58.536Z,992.60
2018-05-24T08:22:58.677Z,992.63
2018-05-24T08:23:58.876Z,992.68
2018-05-24T08:24:58.953Z,992.65
2018-05-24T08:25:59.191Z,992.64
2018-05-24T08:26:59.354Z,992.70
2018-05-24T08:27:59.525Z,992.68
2018-05-24T08:28:59.749Z,992.68
2018-05-24T08:29:59.803Z,992.75
2018-05-24T08:31:00.019Z,992.71
2018-05-24T08:32:00.323Z,992.72
2018-05-24T08:33:00.470Z,992.74
2018-05-24T08:34:00.547Z,992.76
2018-05-24T08:35:00.851Z,992.73
2018-05-24T08:36:00.920Z,992.79
2018-05-24T08:37:01.126Z,992.80
2018-05-24T08:38:01.814Z,992.80
2018-05-24T08:39:01.444Z,992.80
2018-05-24T08:40:01.569Z,992.75
2018-05-24T08:41:01.860Z,992.81
2018-05-24T08:42:01.928Z,992.77
2018-05-24T08:43:02.098Z,992.81
2018-05-24T08:44:02.254Z,992.83
2018-05-24T08:45:02.446Z,992.79
2018-05-24T08:46:02.657Z,992.79
2018-05-24T08:47:02.868Z,992.79
2018-05-24T08:48:03.032Z,992.81
2018-05-24T08:49:03.160Z,992.76
2018-05-24T08:50:03.339Z,992.78
2018-05-24T08:51:03.494Z,992.73
2018-05-24T08:52:03.683Z,992.76
2018-05-24T08:53:03.838Z,992.73
2018-05-24T08:54:04.056Z,992.76
2018-05-24T08:55:04.249Z,992.72
2018-05-24T08:56:04.345Z,992.75
2018-05-24T08:57:04.685Z,992.78
2018-05-24T08:58:04.733Z,992.74
2018-05-24T08:59:04.866Z,992.75
2018-05-24T09:00:05.137Z,992.74
2018-05-24T09:01:05.221Z,992.78
2018-05-24T09:02:05.465Z,992.77
2018-05-24T09:03:05.593Z,992.77
2018-05-24T09:04:05.806Z,992.75
2018-05-24T09:05:05.969Z,992.78
2018-05-24T09:06:06.158Z,992.79
2018-05-24T09:07:06.293Z,992.79
2018-05-24T09:08:06.475Z,992.79
2018-05-24T09:09:06.752Z,992.80
2018-05-24T09:10:06.810Z,992.78
2018-05-24T09:11:06.950Z,992.81
2018-05-24T09:12:07.085Z,992.80
2018-05-24T09:13:07.326Z,992.84
2018-05-24T09:14:07.407Z,992.87
2018-05-24T09:15:07.573Z,992.85
2018-05-24T09:16:07.817Z,992.88
2018-05-24T09:17:08.063Z,992.84
2018-05-24T09:18:08.103Z,992.81
2018-05-24T09:19:08.294Z,992.81
2018-05-24T09:20:08.421Z,992.78
2018-05-24T09:21:08.559Z,992.78
2018-05-24T09:22:08.845Z,992.80
2018-05-24T09:23:08.959Z,992.82
2018-05-24T09:24:09.062Z,992.86
2018-05-24T09:25:09.213Z,992.82
2018-05-24T09:26:09.373Z,992.83
2018-05-24T09:27:09.573Z,992.82
2018-05-24T09:28:09.679Z,992.82
2018-05-24T09:29:09.887Z,992.82
2018-05-24T09:30:10.023Z,992.83
2018-05-24T09:31:10.238Z,992.87
2018-05-24T09:32:10.395Z,992.82
2018-05-24T09:33:10.536Z,992.80
2018-05-24T09:34:10.803Z,992.83
2018-05-24T09:35:10.931Z,992.80
2018-05-24T09:36:11.184Z,992.78
2018-05-24T09:37:11.237Z,992.79
2018-05-24T09:38:11.402Z,992.86
2018-05-24T09:39:11.652Z,992.86
2018-05-24T09:40:11.731Z,992.90
2018-05-24T09:41:11.888Z,992.92
2018-05-24T09:42:12.024Z,992.90
2018-05-24T09:43:12.235Z,992.92
2018-05-24T09:44:12.366Z,992.94
2018-05-24T09:45:12.641Z,992.96
2018-05-24T09:46:12.771Z,992.98
2018-05-24T09:47:12.866Z,992.95
2018-05-24T09:48:13.057Z,992.99
2018-05-24T09:49:13.278Z,993.02
2018-05-24T09:50:13.428Z,992.92
2018-05-24T09:51:13.567Z,992.92
2018-05-24T09:52:13.728Z,992.96
2018-05-24T09:53:13.905Z,992.94
2018-05-24T09:54:14.111Z,992.96
2018-05-24T09:55:14.295Z,993.04
2018-05-24T09:56:14.488Z,992.95
2018-05-24T09:57:14.615Z,993.03
2018-05-24T09:58:14.804Z,993.05
2018-05-24T09:59:14.897Z,992.91
2018-05-24T10:00:15.166Z,992.85
2018-05-24T10:01:15.286Z,992.87
2018-05-24T10:02:15.411Z,992.84
2018-05-24T10:03:15.594Z,992.84
2018-05-24T10:04:15.747Z,992.86
2018-05-24T10:05:16.003Z,992.80
2018-05-24T10:06:16.104Z,992.82
2018-05-24T10:07:16.324Z,992.79
2018-05-24T10:08:16.475Z,992.81
2018-05-24T10:09:16.688Z,992.78
2018-05-24T10:10:16.820Z,992.80
2018-05-24T10:11:17.089Z,992.77
2018-05-24T10:12:17.150Z,992.80
2018-05-24T10:13:17.311Z,992.73
2018-05-24T10:14:17.532Z,992.75
2018-05-24T10:15:17.661Z,992.76
2018-05-24T10:16:17.914Z,992.77
2018-05-24T10:17:18.012Z,992.74
2018-05-24T10:18:18.188Z,992.77
2018-05-24T10:19:18.398Z,992.74
2018-05-24T10:20:18.513Z,992.79
2018-05-24T10:21:18.667Z,992.81
2018-05-24T10:22:18.855Z,992.79
2018-05-24T10:23:19.009Z,992.80
2018-05-24T10:24:19.227Z,992.80
2018-05-24T10:25:19.376Z,992.83
2018-05-24T10:26:19.543Z,992.77
2018-05-24T10:27:19.751Z,992.78
2018-05-24T10:28:19.924Z,992.72
2018-05-24T10:29:20.189Z,992.70
2018-05-24T10:30:20.363Z,992.70
2018-05-24T10:31:20.418Z,992.70
2018-05-24T10:32:20.686Z,992.72
2018-05-24T10:33:20.752Z,992.73
2018-05-24T10:34:21.035Z,992.75
2018-05-24T10:35:21.103Z,992.75
2018-05-24T10:36:21.344Z,992.74
2018-05-24T10:37:21.412Z,992.67
2018-05-24T10:38:21.695Z,992.74
2018-05-24T10:39:21.747Z,992.72
2018-05-24T10:40:21.933Z,992.73
2018-05-24T10:41:22.158Z,992.71
2018-05-24T10:42:22.333Z,992.74
2018-05-24T10:43:22.484Z,992.67
2018-05-24T10:44:22.637Z,992.66
2018-05-24T10:45:22.780Z,992.68
2018-05-24T10:46:22.967Z,992.64
2018-05-24T10:47:23.128Z,992.70
2018-05-24T10:48:23.286Z,992.70
2018-05-24T10:49:23.411Z,992.73
2018-05-24T10:50:23.601Z,992.64
2018-05-24T10:51:23.769Z,992.71
2018-05-24T10:52:23.887Z,992.73
2018-05-24T10:53:24.067Z,992.73
2018-05-24T10:54:24.275Z,992.67
2018-05-24T10:55:24.482Z,992.70
2018-05-24T10:56:24.664Z,992.69
2018-05-24T10:57:24.826Z,992.69
2018-05-24T10:58:25.037Z,992.68
2018-05-24T10:59:25.096Z,992.71
2018-05-24T11:00:25.359Z,992.67
2018-05-24T11:01:25.510Z,992.66
2018-05-24T11:02:25.641Z,992.68
2018-05-24T11:03:25.773Z,992.72
2018-05-24T11:04:25.980Z,992.69
2018-05-24T11:05:26.179Z,992.69
2018-05-24T11:06:26.409Z,992.67
2018-05-24T11:07:26.440Z,992.64
2018-05-24T11:08:26.651Z,992.64
2018-05-24T11:09:26.803Z,992.63
2018-05-24T11:10:26.953Z,992.66
2018-05-24T11:11:27.190Z,992.62
2018-05-24T11:12:27.357Z,992.58
2018-05-24T11:13:27.560Z,992.58
2018-05-24T11:14:27.679Z,992.54
2018-05-24T11:15:27.857Z,992.46
2018-05-24T11:16:28.069Z,992.46
2018-05-24T11:17:28.221Z,992.46
2018-05-24T11:18:28.331Z,992.47
2018-05-24T11:19:28.629Z,992.44
2018-05-24T11:20:28.766Z,992.52
2018-05-24T11:21:28.917Z,992.54
2018-05-24T11:22:29.051Z,992.55
2018-05-24T11:23:29.283Z,992.64
2018-05-24T11:24:29.385Z,992.61
2018-05-24T11:25:29.572Z,992.64
2018-05-24T11:26:29.709Z,992.66
2018-05-24T11:27:29.905Z,992.68
2018-05-24T11:28:30.025Z,992.69
2018-05-24T11:29:30.257Z,992.67
2018-05-24T11:30:30.387Z,992.67
2018-05-24T11:31:30.534Z,992.66
2018-05-24T11:32:30.696Z,992.65
2018-05-24T11:33:30.811Z,992.66
2018-05-24T11:34:31.078Z,992.65
2018-05-24T11:35:31.188Z,992.64
2018-05-24T11:36:31.367Z,992.57
2018-05-24T11:37:31.554Z,992.60
2018-05-24T11:38:31.683Z,992.62
2018-05-24T11:39:31.807Z,992.59
2018-05-24T11:40:32.038Z,992.60
2018-05-24T11:41:32.193Z,992.59
2018-05-24T11:42:32.364Z,992.57
2018-05-24T11:43:32.628Z,992.55
2018-05-24T11:44:32.697Z,992.59
2018-05-24T11:45:32.903Z,992.58
2018-05-24T11:46:33.073Z,992.56
2018-05-24T11:47:33.218Z,992.57
2018-05-24T11:48:33.333Z,992.54
2018-05-24T11:49:33.548Z,992.53
2018-05-24T11:50:33.710Z,992.53
2018-05-24T11:51:33.809Z,992.49
2018-05-24T11:52:33.987Z,992.48
2018-05-24T11:53:34.173Z,992.44
2018-05-24T11:54:34.334Z,992.42
2018-05-24T11:55:34.535Z,992.44
2018-05-24T11:56:34.625Z,992.38
2018-05-24T11:57:34.862Z,992.38
2018-05-24T11:58:35.114Z,992.36
2018-05-24T11:59:35.226Z,992.38
2018-05-24T12:00:35.376Z,992.34
2018-05-24T12:01:35.556Z,992.30
2018-05-24T12:02:35.704Z,992.27
2018-05-24T12:03:35.875Z,992.31
2018-05-24T12:04:36.041Z,992.30
2018-05-24T12:05:36.176Z,992.32
2018-05-24T12:06:36.351Z,992.33
2018-05-24T12:07:36.504Z,992.32
2018-05-24T12:08:36.671Z,992.34
2018-05-24T12:09:36.853Z,992.32
2018-05-24T12:10:37.057Z,992.29
2018-05-24T12:11:37.240Z,992.31
2018-05-24T12:12:37.408Z,992.33
2018-05-24T12:13:37.570Z,992.32
2018-05-24T12:14:37.796Z,992.38
2018-05-24T12:15:38.856Z,992.32
2018-05-24T12:16:37.994Z,992.33
2018-05-24T12:17:38.145Z,992.31
2018-05-24T12:18:38.346Z,992.33
2018-05-24T12:19:38.513Z,992.29
2018-05-24T12:20:38.710Z,992.28
2018-05-24T12:21:38.845Z,992.25
2018-05-24T12:22:39.015Z,992.26
2018-05-24T12:23:39.148Z,992.24
2018-05-24T12:24:39.307Z,992.17
2018-05-24T12:25:39.491Z,992.22
2018-05-24T12:26:39.648Z,992.18
2018-05-24T12:27:39.849Z,992.15
2018-05-24T12:28:39.956Z,992.12
2018-05-24T12:29:40.167Z,992.12
2018-05-24T12:30:40.308Z,992.17
2018-05-24T12:31:40.487Z,992.15
2018-05-24T12:32:40.684Z,992.12
2018-05-24T12:33:40.813Z,992.11
2018-05-24T12:34:41.093Z,992.12
2018-05-24T12:35:41.238Z,992.10
2018-05-24T12:36:41.348Z,992.12
2018-05-24T12:37:41.591Z,992.13
2018-05-24T12:38:41.818Z,992.14
2018-05-24T12:39:41.960Z,992.13
2018-05-24T12:40:42.119Z,992.15
2018-05-24T12:41:42.235Z,992.16
2018-05-24T12:42:42.428Z,992.15
2018-05-24T12:43:42.580Z,992.15
2018-05-24T12:44:42.721Z,992.13
2018-05-24T12:45:43.013Z,992.13
2018-05-24T12:46:43.115Z,992.14
2018-05-24T12:47:43.316Z,992.17
2018-05-24T12:48:43.504Z,992.16
2018-05-24T12:49:43.601Z,992.18
2018-05-24T12:50:43.823Z,992.15
2018-05-24T12:51:43.973Z,992.16
2018-05-24T12:52:44.106Z,992.14
2018-05-24T12:53:44.297Z,992.15
2018-05-24T12:54:44.551Z,992.14
2018-05-24T12:55:44.623Z,992.15
2018-05-24T12:56:44.872Z,992.17
2018-05-24T12:57:45.006Z,992.17
2018-05-24T12:58:45.173Z,992.12
2018-05-24T12:59:45.319Z,992.10
2018-05-24T13:00:45.508Z,992.10
2018-05-24T13:01:45.626Z,992.04
2018-05-24T13:02:45.810Z,992.06
2018-05-24T13:03:46.055Z,992.05
2018-05-24T13:04:46.166Z,992.08
2018-05-24T13:05:46.258Z,992.05
2018-05-24T13:06:46.487Z,992.05
2018-05-24T13:07:46.678Z,992.05
2018-05-24T13:08:46.861Z,992.04
2018-05-24T13:09:47.019Z,992.01
2018-05-24T13:10:47.152Z,992.06
2018-05-24T13:11:47.316Z,992.10
2018-05-24T13:12:47.527Z,992.05
2018-05-24T13:13:47.726Z,992.08
2018-05-24T13:14:47.855Z,992.14
2018-05-24T13:15:47.969Z,992.08
2018-05-24T13:16:48.139Z,992.05
2018-05-24T13:17:48.332Z,992.05
2018-05-24T13:18:48.566Z,992.08
2018-05-24T13:19:48.700Z,992.10
2018-05-24T13:20:48.823Z,992.06
2018-05-24T13:21:49.001Z,992.09
2018-05-24T13:22:49.123Z,992.07
2018-05-24T13:23:49.360Z,992.06
2018-05-24T13:24:49.522Z,992.09
2018-05-24T13:25:49.637Z,992.12
2018-05-24T13:26:49.872Z,992.10
2018-05-24T13:27:49.973Z,992.06
2018-05-24T13:28:50.196Z,992.10
2018-05-24T13:29:50.282Z,992.04
2018-05-24T13:30:50.484Z,992.06
2018-05-24T13:31:50.653Z,992.06
2018-05-24T13:32:50.897Z,992.07
2018-05-24T13:33:51.046Z,992.01
2018-05-24T13:34:51.179Z,992.02
2018-05-24T13:35:51.330Z,992.03
2018-05-24T13:36:51.543Z,992.05
2018-05-24T13:37:51.676Z,992.06
2018-05-24T13:38:51.830Z,992.07
2018-05-24T13:39:52.012Z,992.08
2018-05-24T13:40:52.229Z,992.05
2018-05-24T13:41:52.387Z,992.01
2018-05-24T13:42:52.530Z,992.02
2018-05-24T13:43:52.716Z,992.07
2018-05-24T13:44:52.956Z,991.99
2018-05-24T13:45:53.090Z,991.98
2018-05-24T13:46:53.232Z,991.96
2018-05-24T13:47:53.386Z,991.92
2018-05-24T13:48:53.559Z,991.92
2018-05-24T13:49:53.705Z,991.92
2018-05-24T13:50:53.988Z,991.84
2018-05-24T13:51:54.101Z,991.88
2018-05-24T13:52:54.303Z,991.87
2018-05-24T13:53:54.428Z,991.86
2018-05-24T13:54:54.588Z,991.94
2018-05-24T13:55:54.778Z,991.91
2018-05-24T13:56:54.892Z,991.87
2018-05-24T13:57:55.156Z,991.92
2018-05-24T13:58:55.229Z,991.88
2018-05-24T13:59:55.511Z,991.89
2018-05-24T14:00:55.596Z,991.85
2018-05-24T14:01:55.820Z,991.89
2018-05-24T14:02:56.755Z,991.82
2018-05-24T14:03:56.213Z,991.81
2018-05-24T14:04:56.348Z,991.81
2018-05-24T14:05:56.612Z,991.77
2018-05-24T14:06:56.807Z,991.75
2018-05-24T14:07:56.906Z,991.73
2018-05-24T14:08:57.118Z,991.77
2018-05-24T14:09:57.214Z,991.69
2018-05-24T14:10:57.359Z,991.79
2018-05-24T14:11:57.557Z,991.72
2018-05-24T14:12:57.743Z,991.80
2018-05-24T14:13:57.840Z,991.71
2018-05-24T14:14:58.021Z,991.76
2018-05-24T14:15:58.229Z,991.71
2018-05-24T14:16:58.471Z,991.77
2018-05-24T14:17:58.590Z,991.72
2018-05-24T14:18:58.702Z,991.71
2018-05-24T14:19:58.909Z,991.76
2018-05-24T14:20:59.105Z,991.70
2018-05-24T14:21:59.217Z,991.72
2018-05-24T14:22:59.409Z,991.75
2018-05-24T14:23:59.551Z,991.79
2018-05-24T14:24:59.785Z,991.75
2018-05-24T14:25:59.882Z,991.75
2018-05-24T14:27:00.019Z,991.79
2018-05-24T14:28:00.179Z,991.78
2018-05-24T14:29:00.388Z,991.68
2018-05-24T14:30:00.561Z,991.69
2018-05-24T14:31:00.730Z,991.70
2018-05-24T14:32:00.909Z,991.66
2018-05-24T14:33:01.043Z,991.67
2018-05-24T14:34:01.255Z,991.67
2018-05-24T14:35:01.370Z,991.66
2018-05-24T14:36:01.505Z,991.65
2018-05-24T14:37:01.760Z,991.60
2018-05-24T14:38:01.896Z,991.58
2018-05-24T14:39:02.025Z,991.57
2018-05-24T14:40:02.171Z,991.53
2018-05-24T14:41:02.328Z,991.54
2018-05-24T14:42:02.541Z,991.51
2018-05-24T14:43:02.725Z,991.48
2018-05-24T14:44:02.861Z,991.47
2018-05-24T14:45:03.054Z,991.45
2018-05-24T14:46:03.190Z,991.47
2018-05-24T14:47:03.383Z,991.45
2018-05-24T14:48:03.519Z,991.41
2018-05-24T14:49:03.697Z,991.40
2018-05-24T14:50:03.888Z,991.37
2018-05-24T14:51:04.020Z,991.37
2018-05-24T14:52:04.165Z,991.38
2018-05-24T14:53:04.391Z,991.39
2018-05-24T14:54:04.512Z,991.37
2018-05-24T14:55:04.684Z,991.36
2018-05-24T14:56:04.901Z,991.40
2018-05-24T14:57:04.969Z,991.38
2018-05-24T14:58:05.195Z,991.42
2018-05-24T14:59:05.359Z,991.38
2018-05-24T15:00:05.469Z,991.44
2018-05-24T15:01:05.646Z,991.47
2018-05-24T15:02:05.849Z,991.47
2018-05-24T15:03:06.044Z,991.45
2018-05-24T15:04:06.170Z,991.44
2018-05-24T15:05:06.314Z,991.43
2018-05-24T15:06:06.527Z,991.45
2018-05-24T15:07:06.674Z,991.47
2018-05-24T15:08:06.871Z,991.43
2018-05-24T15:09:07.008Z,991.42
2018-05-24T15:10:07.175Z,991.44
2018-05-24T15:11:07.343Z,991.42
2018-05-24T15:12:07.516Z,991.40
2018-05-24T15:13:07.635Z,991.44
2018-05-24T15:14:07.863Z,991.41
2018-05-24T15:15:08.016Z,991.41
2018-05-24T15:16:08.132Z,991.45
2018-05-24T15:17:08.356Z,991.44
2018-05-24T15:18:08.516Z,991.44
2018-05-24T15:19:08.717Z,991.44
2018-05-24T15:20:08.900Z,991.45
2018-05-24T15:21:08.975Z,991.44
2018-05-24T15:22:09.141Z,991.42
2018-05-24T15:23:09.354Z,991.44
2018-05-24T15:24:09.518Z,991.45
2018-05-24T15:25:09.738Z,991.45
2018-05-24T15:26:09.838Z,991.50
2018-05-24T15:27:10.126Z,991.43
2018-05-24T15:28:10.215Z,991.46
2018-05-24T15:29:10.332Z,991.40
2018-05-24T15:30:10.579Z,991.38
2018-05-24T15:31:10.671Z,991.35